createdAt,value
2023-01-13T00:02:45.343Z,81.35
2023-01-13T00:07:49.208Z,79.90
2023-01-13T00:12:51.901Z,80.87
2023-01-13T00:17:54.071Z,80.76
2023-01-13T00:22:57.140Z,80.80
2023-01-13T00:27:59.217Z,81.17
2023-01-13T00:33:01.846Z,80.57
2023-01-13T00:38:03.955Z,80.83
2023-01-13T00:43:24.138Z,81.53
2023-01-13T00:48:27.596Z,81.15
2023-01-13T00:53:33.949Z,81.55
2023-01-13T00:58:36.549Z,81.01
2023-01-13T01:03:38.882Z,81.21
2023-01-13T01:08:41.227Z,81.16
2023-01-13T01:13:45.367Z,81.57
2023-01-13T01:18:49.460Z,81.49
2023-01-13T01:23:51.770Z,82.06
2023-01-13T01:28:54.303Z,81.71
2023-01-13T01:33:56.395Z,82.58
2023-01-13T01:38:59.847Z,81.88
2023-01-13T01:44:26.743Z,82.35
2023-01-13T01:49:34.158Z,82.46
2023-01-13T01:54:42.486Z,82.06
2023-01-13T01:59:45.313Z,81.91
2023-01-13T02:04:52.553Z,82.16
2023-01-13T02:10:02.049Z,82.28
2023-01-13T02:15:07.863Z,81.80
2023-01-13T02:20:22.080Z,82.65
2023-01-13T02:25:56.448Z,82.50
2023-01-13T02:31:26.825Z,82.13
2023-01-13T02:36:41.604Z,82.15
2023-01-13T02:42:21.590Z,82.35
2023-01-13T02:47:27.255Z,82.37
2023-01-13T02:52:34.887Z,82.05
2023-01-13T02:57:38.855Z,82.53
2023-01-13T03:02:40.933Z,82.64
2023-01-13T03:07:46.366Z,82.53
2023-01-13T03:13:04.716Z,82.70
2023-01-13T03:18:24.823Z,82.81
2023-01-13T03:23:46.387Z,82.61
2023-01-13T03:29:22.363Z,82.52
2023-01-13T03:34:31.263Z,83.31
2023-01-13T03:39:39.052Z,82.79
2023-01-13T03:44:48.019Z,83.51
2023-01-13T03:50:05.751Z,83.05
2023-01-13T03:55:12.294Z,82.89
2023-01-13T04:00:15.919Z,82.63
2023-01-13T04:05:19.061Z,83.04
2023-01-13T04:10:28.716Z,82.76
2023-01-13T04:15:43.371Z,82.73
2023-01-13T04:20:46.297Z,83.26
2023-01-13T04:25:49.721Z,83.67
2023-01-13T04:30:52.288Z,83.32
2023-01-13T04:35:55.345Z,83.52
2023-01-13T04:40:57.370Z,83.24
2023-01-13T04:45:59.463Z,83.54
2023-01-13T04:51:01.575Z,84.07
2023-01-13T04:56:03.611Z,83.72
2023-01-13T05:01:05.614Z,84.07
2023-01-13T05:06:07.685Z,84.97
2023-01-13T05:11:28.340Z,85.08
2023-01-13T05:16:48.615Z,84.97
2023-01-13T05:22:29.041Z,84.33
2023-01-13T05:27:31.732Z,85.12
2023-01-13T05:32:33.814Z,84.55
2023-01-13T05:37:36.186Z,85.31
2023-01-13T05:42:56.801Z,84.81
2023-01-13T05:47:58.715Z,85.08
2023-01-13T05:53:00.709Z,84.70
2023-01-13T05:58:02.700Z,85.22
2023-01-13T06:03:05.650Z,84.88
2023-01-13T06:08:08.621Z,85.32
2023-01-13T06:13:10.859Z,85.19
2023-01-13T06:18:12.918Z,85.24
2023-01-13T06:23:15.049Z,85.01
2023-01-13T06:28:17.206Z,85.98
2023-01-13T06:33:24.236Z,85.60
2023-01-13T06:38:30.302Z,85.50
2023-01-13T06:43:32.434Z,84.69
2023-01-13T06:48:35.810Z,85.48
2023-01-13T06:53:37.934Z,85.41
2023-01-13T06:58:39.984Z,84.94
2023-01-13T07:03:42.121Z,85.35
2023-01-13T07:08:44.241Z,85.05
2023-01-13T07:14:04.894Z,85.11
2023-01-13T07:19:06.810Z,85.12
2023-01-13T07:24:08.866Z,85.38
2023-01-13T07:29:11.144Z,85.02
2023-01-13T07:34:13.128Z,84.88
2023-01-13T07:39:15.448Z,85.28
2023-01-13T07:44:17.677Z,84.92
2023-01-13T07:49:19.867Z,84.51
2023-01-13T07:54:35.104Z,84.86
2023-01-13T07:59:41.621Z,85.20
2023-01-13T08:04:43.671Z,85.27
2023-01-13T08:09:45.824Z,84.85
2023-01-13T08:14:47.905Z,85.38
2023-01-13T08:19:50.195Z,85.14
2023-01-13T08:24:52.256Z,84.71
2023-01-13T08:29:54.365Z,84.84
2023-01-13T08:34:56.575Z,84.90
2023-01-13T08:39:58.607Z,85.25
2023-01-13T08:45:00.739Z,85.17
2023-01-13T08:50:03.120Z,85.48
2023-01-13T08:55:05.678Z,84.94
2023-01-13T09:00:07.953Z,85.08
2023-01-13T09:05:11.437Z,85.52
2023-01-13T09:10:13.873Z,85.29
2023-01-13T09:15:18.833Z,84.88
2023-01-13T09:20:21.034Z,85.33
2023-01-13T09:25:23.231Z,85.44
2023-01-13T09:30:25.368Z,84.75
2023-01-13T09:35:27.473Z,85.09
2023-01-13T09:40:29.630Z,85.40
2023-01-13T09:45:55.520Z,85.32
2023-01-13T09:51:15.003Z,84.86
2023-01-13T09:56:18.503Z,85.24
2023-01-13T10:01:23.315Z,85.13
2023-01-13T10:06:34.416Z,84.93
2023-01-13T10:12:07.803Z,84.69
2023-01-13T10:17:26.359Z,84.71
2023-01-13T10:22:54.390Z,84.88
2023-01-13T10:28:02.485Z,85.08
2023-01-13T10:33:15.467Z,84.78
2023-01-13T10:38:39.001Z,84.42
2023-01-13T10:43:58.087Z,84.86
2023-01-13T10:49:03.062Z,85.22
2023-01-13T10:54:25.833Z,85.37
2023-01-13T10:59:27.991Z,84.49
2023-01-13T11:04:30.124Z,84.57
2023-01-13T11:09:33.508Z,85.19
2023-01-13T11:14:53.839Z,84.28
2023-01-13T11:20:06.524Z,84.63
2023-01-13T11:25:18.652Z,84.18
2023-01-13T11:30:45.538Z,84.04
2023-01-13T11:35:53.997Z,84.03
2023-01-13T11:41:00.731Z,84.42
2023-01-13T11:46:03.269Z,84.35
2023-01-13T11:51:14.224Z,84.14
2023-01-13T11:57:02.564Z,83.98
2023-01-13T12:02:19.521Z,84.49
2023-01-13T12:07:27.491Z,84.30
2023-01-13T12:12:33.357Z,83.92
2023-01-13T12:17:50.062Z,84.26
2023-01-13T12:22:54.934Z,83.94
2023-01-13T12:28:04.573Z,83.81
2023-01-13T12:33:19.995Z,83.72
2023-01-13T12:38:59.897Z,83.89
2023-01-13T12:44:18.172Z,83.83
2023-01-13T12:49:24.983Z,84.32
2023-01-13T12:54:41.793Z,84.10
2023-01-13T13:00:05.294Z,84.18
2023-01-13T13:05:25.874Z,84.22
2023-01-13T13:10:34.897Z,84.17
2023-01-13T13:15:37.549Z,84.03
2023-01-13T13:21:07.294Z,84.16
2023-01-13T13:26:25.756Z,83.87
2023-01-13T13:31:55.525Z,83.89
2023-01-13T13:37:31.486Z,84.02
2023-01-13T13:43:14.225Z,84.12
2023-01-13T13:48:34.633Z,83.58
2023-01-13T13:53:39.573Z,83.87
2023-01-13T13:58:41.720Z,83.61
2023-01-13T14:03:43.893Z,83.44
2023-01-13T14:08:50.545Z,83.21
2023-01-13T14:14:16.557Z,83.86
2023-01-13T14:19:30.906Z,83.67
2023-01-13T14:24:33.279Z,83.50
2023-01-13T14:29:35.491Z,83.20
2023-01-13T14:34:39.284Z,83.37
2023-01-13T14:39:41.811Z,83.44
2023-01-13T14:44:49.164Z,83.46
2023-01-13T14:50:06.291Z,83.67
2023-01-13T14:55:10.350Z,84.02
2023-01-13T15:00:15.233Z,84.59
2023-01-13T15:05:20.397Z,84.28
2023-01-13T15:10:38.407Z,84.43
2023-01-13T15:15:40.521Z,84.50
2023-01-13T15:20:43.016Z,84.14
2023-01-13T15:25:46.642Z,84.51
2023-01-13T15:30:50.265Z,84.42
2023-01-13T15:35:55.119Z,84.66
2023-01-13T15:40:57.307Z,84.90
2023-01-13T15:46:18.738Z,85.09
2023-01-13T15:51:21.521Z,84.46
2023-01-13T15:56:27.205Z,85.32
2023-01-13T16:01:29.461Z,84.80
2023-01-13T16:06:36.635Z,85.30
2023-01-13T16:11:38.810Z,85.32
2023-01-13T16:16:41.120Z,85.67
2023-01-13T16:21:43.088Z,84.94
2023-01-13T16:26:46.420Z,85.46
2023-01-13T16:31:48.624Z,85.53
2023-01-13T16:36:50.749Z,85.56
2023-01-13T16:41:53.170Z,85.60
2023-01-13T16:46:55.029Z,84.85
2023-01-13T16:51:57.244Z,85.25
2023-01-13T16:56:59.341Z,85.02
2023-01-13T17:02:02.633Z,85.51
2023-01-13T17:07:08.710Z,85.22
2023-01-13T17:12:12.689Z,85.21
2023-01-13T17:17:23.435Z,86.03
2023-01-13T17:22:25.756Z,85.26
2023-01-13T17:27:28.399Z,86.00
2023-01-13T17:32:30.650Z,85.70
2023-01-13T17:37:33.297Z,84.87
2023-01-13T17:42:37.475Z,85.65
2023-01-13T17:47:40.031Z,85.30
2023-01-13T17:52:42.402Z,85.31
2023-01-13T17:57:44.711Z,85.18
2023-01-13T18:02:46.956Z,85.24
2023-01-13T18:07:50.429Z,85.27
2023-01-13T18:12:53.021Z,85.00
2023-01-13T18:17:56.153Z,85.58
2023-01-13T18:23:17.036Z,85.22
2023-01-13T18:28:20.091Z,84.41
2023-01-13T18:33:22.993Z,84.22
2023-01-13T18:38:27.990Z,84.10
2023-01-13T18:43:34.248Z,84.34
2023-01-13T18:48:36.750Z,84.21
2023-01-13T18:53:38.831Z,84.23
2023-01-13T18:58:54.023Z,84.19
2023-01-13T19:03:58.547Z,84.06
2023-01-13T19:09:10.795Z,84.63
2023-01-13T19:14:34.701Z,84.23
2023-01-13T19:19:51.179Z,84.13
2023-01-13T19:24:55.298Z,83.80
2023-01-13T19:29:58.656Z,84.04
2023-01-13T19:35:02.904Z,84.04
2023-01-13T19:40:10.005Z,83.50
2023-01-13T19:45:29.578Z,83.85
2023-01-13T19:50:35.599Z,83.31
2023-01-13T19:55:38.342Z,83.06
2023-01-13T20:00:47.586Z,83.38
2023-01-13T20:05:50.973Z,83.46
2023-01-13T20:11:13.972Z,83.33
2023-01-13T20:16:17.229Z,83.83
2023-01-13T20:21:20.559Z,83.16
2023-01-13T20:26:24.182Z,83.42
2023-01-13T20:31:28.022Z,83.29
2023-01-13T20:36:38.347Z,83.44
2023-01-13T20:41:59.281Z,83.44
2023-01-13T20:47:03.299Z,83.69
2023-01-13T20:52:10.095Z,83.80
2023-01-13T20:57:13.328Z,83.48
2023-01-13T21:02:16.957Z,83.35
2023-01-13T21:07:19.341Z,83.59
2023-01-13T21:12:40.120Z,83.65
2023-01-13T21:18:01.855Z,83.48
2023-01-13T21:23:04.971Z,83.50
2023-01-13T21:28:08.725Z,83.65
2023-01-13T21:33:14.364Z,83.87
2023-01-13T21:38:16.705Z,83.38
2023-01-13T21:43:37.243Z,83.72
2023-01-13T21:48:39.435Z,83.78
2023-01-13T21:53:41.490Z,83.55
2023-01-13T21:58:44.194Z,83.25
2023-01-13T22:04:05.739Z,83.57
2023-01-13T22:09:07.811Z,83.65
2023-01-13T22:14:10.670Z,83.53
2023-01-13T22:19:12.877Z,83.51
2023-01-13T22:24:15.713Z,83.63
2023-01-13T22:29:18.643Z,83.22
2023-01-13T22:34:21.010Z,83.21
2023-01-13T22:39:23.107Z,82.74
2023-01-13T22:44:25.698Z,82.99
2023-01-13T22:49:27.599Z,82.78
2023-01-13T22:54:29.842Z,82.68
2023-01-13T22:59:32.328Z,82.70
2023-01-13T23:04:34.929Z,82.51
2023-01-13T23:09:36.874Z,82.28
2023-01-13T23:14:38.981Z,82.32
2023-01-13T23:19:41.046Z,82.36
2023-01-13T23:24:43.104Z,82.59
2023-01-13T23:29:45.208Z,82.31
2023-01-13T23:34:47.438Z,82.33
2023-01-13T23:39:49.740Z,82.46
2023-01-13T23:44:52.287Z,82.35
2023-01-13T23:49:54.467Z,82.11
2023-01-13T23:54:57.618Z,82.32
2023-01-13T23:59:59.935Z,82.36
